Airfield :
LOGIN :

Register | Disclaimer

   EN    FR    IT 

 










Legend :    VFR   Marginal VFR   IFR   Intensive IFR   Very Intensive IFR
Visi :
Ceiling :
>= 8 km
>= 3000ft
5 to 8 km
1000 to 3000 ft
1500m to 5 km
500 to 1000 ft
800 to 1500m
200 to 500 ft
< 800m
< 200 ft
Symbols :   Thunderstorms  Fog  Heavy snow  Heavy precipitations  Wind > 20 kt
SIGMETs :     Misc.  Thunderstorms  Icing  Turbulence  Mountain Waves  Volcanic Ashes






- Airport Elevation : 13 ft
- IATA code : LYX


EGMD - Lydd

CURRENT METAR :
  • 231550Z VRB03KT 9999 FEW025 BKN048 14/09 Q1025

EXPIRED METARs :
  • 231520Z VRB03KT 9999 FEW025 BKN049 14/10 Q1025
  • 231450Z 08003KT 9999 FEW025 BKN045 13/10 Q1026
  • 231420Z VRB03KT 9999 SCT025 BKN045 12/10 Q1026
  • 231350Z VRB03KT 9999 FEW025 SCT032 BKN045 13/09 Q1026
  • 231320Z 11003KT 9999 FEW025 BKN045 13/09 Q1026

TAF TAF EGMD
Valid from the 23 at 15:00 until the 24 at 00:00 UTC


231354Z 2315/2324 20006KT 9999 SCT045
ATIS : +44 1797 322 422



MET'MAP, your aeronautical weather chart ! - Copyright ORBIFLY December 2007 - Disclaimer

ORBIFLY MET'MAP TEAM :

Programming & Development : Alexandra Zaïnal
Concept & original design : Baudouin d'Aumeries
Assistance for programming : Marc-Olivier Méhu
Technical & hardware support : Manuel Goepfert

Contact : metmap@orbifly.com




SOURCES & CREDITS :

   NOAA